Time;durP1;ratioP1;P1;durP2;ratioP2;P2;SDS_P1;SDS_P2;PMS_P1;PMS_P2;Temp;Humidity;BMP_temperature;BMP_pressure;BME280_temperature;BME280_humidity;BME280_pressure;Samples;Min_cycle;Max_cycle;Signal;HPM_P1;HPM_P2
2022/03/03 00:01:18;;;;;;;37.95;26.42;;;5.10;99.80;;;;;;5075128;28;20423;-52
2022/03/03 00:03:43;;;;;;;36.00;24.33;;;5.00;99.70;;;;;;5089580;28;20086;-52
2022/03/03 00:06:09;;;;;;;38.90;26.58;;;5.00;99.60;;;;;;5075027;28;20453;-52
2022/03/03 00:08:35;;;;;;;28.20;21.02;;;5.00;99.70;;;;;;5074666;28;20078;-52
2022/03/03 00:11:01;;;;;;;30.27;20.42;;;4.90;99.60;;;;;;5073877;28;20074;-53
2022/03/03 00:13:27;;;;;;;37.40;24.10;;;4.90;99.60;;;;;;5072190;28;20048;-52
2022/03/03 00:15:53;;;;;;;38.30;26.05;;;4.90;99.60;;;;;;5072431;28;20044;-53
2022/03/03 00:18:18;;;;;;;25.38;17.08;;;4.80;99.80;;;;;;5074487;28;20368;-52
2022/03/03 00:20:44;;;;;;;26.25;19.17;;;4.70;99.80;;;;;;5074444;28;20054;-52
2022/03/03 00:23:10;;;;;;;29.25;20.10;;;4.60;99.90;;;;;;5074734;28;20107;-52
2022/03/03 00:25:35;;;;;;;27.88;18.02;;;4.70;99.80;;;;;;5072239;28;20041;-52
2022/03/03 00:28:05;;;;;;;24.38;17.48;;;4.60;99.90;;;;;;5073735;28;20028;-52
2022/03/03 00:30:31;;;;;;;22.98;15.88;;;4.60;99.90;;;;;;5074238;28;20035;-53
2022/03/03 00:32:56;;;;;;;28.75;18.30;;;4.80;99.90;;;;;;5074119;28;20041;-53
2022/03/03 00:35:22;;;;;;;23.67;17.02;;;4.60;99.90;;;;;;5074214;28;20029;-52
2022/03/03 00:37:48;;;;;;;28.00;15.23;;;4.60;99.80;;;;;;5073996;28;20399;-52
2022/03/03 00:40:14;;;;;;;24.55;15.70;;;4.60;99.90;;;;;;5038714;28;20032;-52
2022/03/03 00:42:39;;;;;;;22.48;15.88;;;4.60;99.90;;;;;;5074125;28;20032;-53
2022/03/03 00:45:06;;;;;;;23.88;15.77;;;4.50;99.90;;;;;;5074201;28;20036;-52
2022/03/03 00:47:32;;;;;;;23.80;16.00;;;4.50;99.90;;;;;;5074058;28;20036;-53
2022/03/03 00:49:58;;;;;;;24.13;16.20;;;4.50;99.90;;;;;;5074002;28;20395;-52
2022/03/03 00:52:24;;;;;;;24.75;15.57;;;4.30;99.90;;;;;;5073877;28;20020;-52
2022/03/03 00:54:49;;;;;;;21.73;15.05;;;4.30;99.90;;;;;;5073756;28;20029;-52
2022/03/03 00:57:15;;;;;;;23.75;15.70;;;4.20;99.90;;;;;;5071359;28;20583;-52
2022/03/03 00:59:41;;;;;;;22.95;16.75;;;4.10;99.90;;;;;;5071686;28;20059;-52
2022/03/03 01:02:07;;;;;;;24.17;16.80;;;4.10;99.90;;;;;;5071417;28;20075;-52
2022/03/03 01:04:33;;;;;;;24.60;16.25;;;4.10;99.90;;;;;;5071481;28;20033;-53
2022/03/03 01:06:58;;;;;;;24.08;16.38;;;4.10;99.90;;;;;;5071382;28;20032;-52
2022/03/03 01:09:24;;;;;;;27.70;18.13;;;4.00;99.90;;;;;;5037689;28;20127;-53
2022/03/03 01:11:50;;;;;;;40.05;28.15;;;4.00;99.90;;;;;;4997958;28;20037;-52
2022/03/03 01:14:21;;;;;;;47.15;34.83;;;4.00;99.90;;;;;;5031168;28;20082;-53
2022/03/03 01:16:48;;;;;;;41.05;32.15;;;4.00;99.90;;;;;;5028805;28;20073;-53
2022/03/03 01:19:13;;;;;;;36.72;26.42;;;4.00;99.90;;;;;;5014679;28;20436;-52
2022/03/03 01:21:39;;;;;;;27.92;22.45;;;4.00;99.90;;;;;;5031039;28;20067;-53
2022/03/03 01:24:05;;;;;;;28.42;19.63;;;3.90;99.90;;;;;;5030799;28;20056;-53
2022/03/03 01:26:31;;;;;;;24.67;17.42;;;3.90;99.90;;;;;;5031226;28;20064;-52
2022/03/03 01:28:57;;;;;;;24.10;16.20;;;3.80;99.90;;;;;;5031158;28;20076;-52
2022/03/03 01:31:23;;;;;;;23.63;15.60;;;3.80;99.90;;;;;;5030799;28;20080;-53
2022/03/03 01:33:49;;;;;;;21.20;15.93;;;3.90;99.90;;;;;;5031191;28;20037;-52
2022/03/03 01:36:14;;;;;;;24.27;15.50;;;3.80;99.90;;;;;;5031081;28;20147;-52
2022/03/03 01:38:40;;;;;;;24.50;16.20;;;3.90;99.90;;;;;;5030707;28;20508;-53
2022/03/03 01:41:07;;;;;;;22.38;15.27;;;4.00;99.90;;;;;;5033113;28;20034;-53
2022/03/03 01:43:33;;;;;;;21.90;15.93;;;3.90;99.90;;;;;;5069204;28;20044;-52
2022/03/03 01:45:59;;;;;;;24.35;16.60;;;3.90;99.90;;;;;;5076343;28;20457;-52
2022/03/03 01:48:24;;;;;;;22.52;16.42;;;3.90;99.90;;;;;;5041689;28;20032;-52
2022/03/03 01:50:52;;;;;;;25.35;16.98;;;3.90;99.90;;;;;;5075174;28;20480;-53
2022/03/03 01:53:18;;;;;;;22.60;15.32;;;3.90;99.90;;;;;;5077032;28;20040;-53
2022/03/03 01:55:45;;;;;;;24.90;16.17;;;3.80;99.90;;;;;;5077159;28;20107;-52
2022/03/03 01:58:11;;;;;;;28.63;15.20;;;3.80;99.90;;;;;;5077600;28;20364;-52
2022/03/03 02:00:38;;;;;;;23.63;15.90;;;3.70;99.90;;;;;;5077125;28;20024;-52
2022/03/03 02:03:06;;;;;;;22.42;15.82;;;;;;;;;;5076887;28;20016;-52
2022/03/03 02:05:32;;;;;;;22.60;14.77;;;;;;;;;;5077103;28;20036;-52
2022/03/03 02:07:58;;;;;;;23.35;16.50;;;;;;;;;;5076849;28;20029;-53
2022/03/03 02:10:25;;;;;;;25.90;17.65;;;;;;;;;;5076754;28;20028;-52
2022/03/03 02:12:51;;;;;;;23.17;14.95;;;;;;;;;;5076952;28;20494;-52
2022/03/03 02:15:18;;;;;;;24.98;16.27;;;;;;;;;;5076567;28;20024;-53
2022/03/03 02:17:45;;;;;;;38.65;22.95;;;;;;;;;;5076711;28;20020;-52
2022/03/03 02:20:32;;;;;;;38.17;22.88;;;;;;;;;;5076646;28;20167;-53
2022/03/03 02:22:59;;;;;;;54.67;29.92;;;;;;;;;;5076598;28;20052;-52
2022/03/03 02:25:28;;;;;;;73.05;38.88;;;;;;;;;;5091472;28;20040;-54
2022/03/03 02:27:54;;;;;;;72.00;42.00;;;3.30;99.90;;;;;;5076471;28;20134;-55
2022/03/03 02:30:20;;;;;;;32.40;22.58;;;3.40;99.90;;;;;;5076573;28;20488;-52
2022/03/03 02:32:47;;;;;;;28.58;19.65;;;3.40;99.90;;;;;;5076360;28;20365;-53
2022/03/03 02:35:13;;;;;;;27.10;20.52;;;3.50;99.90;;;;;;5076271;28;20032;-53
2022/03/03 02:37:43;;;;;;;27.58;20.80;;;3.40;99.90;;;;;;5075724;28;20028;-55
2022/03/03 02:40:12;;;;;;;30.88;23.38;;;3.40;99.90;;;;;;5075977;28;20025;-55
2022/03/03 02:42:38;;;;;;;26.73;17.05;;;3.30;99.90;;;;;;5074173;28;20476;-51
2022/03/03 02:45:05;;;;;;;29.30;19.33;;;3.40;99.90;;;;;;5076296;28;20067;-52
2022/03/03 02:47:31;;;;;;;25.83;16.63;;;3.50;99.90;;;;;;5076129;28;20021;-54
2022/03/03 02:49:57;;;;;;;27.88;16.67;;;3.50;99.90;;;;;;5091043;28;20426;-52
2022/03/03 02:52:24;;;;;;;25.02;16.65;;;3.60;99.90;;;;;;5076765;28;20036;-53
2022/03/03 02:54:49;;;;;;;21.35;14.95;;;3.70;99.90;;;;;;5079012;28;20066;-54
2022/03/03 02:59:59;;;;;;;23.27;15.52;;;3.90;99.90;;;;;;5079245;28;20031;-53
2022/03/03 03:02:25;;;;;;;22.75;16.13;;;3.90;99.90;;;;;;5077492;28;20032;-54
2022/03/03 03:04:51;;;;;;;21.25;15.07;;;4.00;99.90;;;;;;5075693;28;20457;-53
2022/03/03 03:07:17;;;;;;;22.80;15.32;;;4.00;99.90;;;;;;5075661;28;20024;-53
2022/03/03 03:09:42;;;;;;;21.92;14.00;;;4.00;99.90;;;;;;5090678;28;20068;-53
2022/03/03 03:12:08;;;;;;;20.58;14.20;;;4.10;99.90;;;;;;5075683;28;20063;-53
2022/03/03 03:14:34;;;;;;;23.52;15.05;;;4.10;99.90;;;;;;5075773;28;20032;-54
2022/03/03 03:17:01;;;;;;;23.13;14.25;;;4.20;99.90;;;;;;5075638;28;20158;-53
2022/03/03 03:19:26;;;;;;;26.40;16.88;;;4.20;99.90;;;;;;5075511;28;20473;-55
2022/03/03 03:21:52;;;;;;;24.20;16.20;;;4.30;99.90;;;;;;5075744;28;20039;-53
2022/03/03 03:24:18;;;;;;;23.13;14.13;;;4.30;99.90;;;;;;5075722;28;20031;-52
2022/03/03 03:26:44;;;;;;;23.73;13.88;;;4.30;99.90;;;;;;5075537;28;20021;-52
2022/03/03 03:29:10;;;;;;;22.73;14.05;;;4.30;99.90;;;;;;5090305;28;20036;-52
2022/03/03 03:31:36;;;;;;;39.92;16.35;;;4.40;99.90;;;;;;5075368;28;20039;-52
2022/03/03 03:34:01;;;;;;;19.30;12.45;;;4.30;99.90;;;;;;5039752;28;20040;-52
2022/03/03 03:36:27;;;;;;;23.85;14.25;;;4.40;99.90;;;;;;5075310;28;20426;-52
2022/03/03 03:38:53;;;;;;;19.40;12.60;;;;;;;;;;5075039;28;20123;-55
2022/03/03 03:41:19;;;;;;;21.08;13.05;;;;;;;;;;5075329;28;20032;-52
2022/03/03 03:43:45;;;;;;;21.02;13.35;;;;;;;;;;5073233;28;20036;-53
2022/03/03 03:46:12;;;;;;;20.05;13.18;;;;;;;;;;5072868;28;20032;-56
2022/03/03 03:48:38;;;;;;;20.08;12.30;;;;;;;;;;5075226;28;20100;-52
2022/03/03 03:51:04;;;;;;;21.10;13.27;;;;;;;;;;5074825;28;20029;-53
2022/03/03 03:53:30;;;;;;;20.95;13.55;;;;;;;;;;5089430;28;20416;-52
2022/03/03 03:55:56;;;;;;;20.08;13.68;;;;;;;;;;5073067;28;20488;-53
2022/03/03 03:58:22;;;;;;;25.65;16.90;;;;;;;;;;5074888;28;20415;-54
2022/03/03 04:00:48;;;;;;;26.58;16.58;;;;;;;;;;5073690;28;20055;-52
2022/03/03 04:03:14;;;;;;;35.13;20.55;;;;;;;;;;5073768;28;20024;-52
2022/03/03 04:05:40;;;;;;;43.50;26.40;;;;;;;;;;5075011;28;20107;-52
2022/03/03 04:08:07;;;;;;;62.17;35.80;;;;;;;;;;5074804;28;20036;-52
2022/03/03 04:10:33;;;;;;;30.05;19.45;;;;;;;;;;5074733;28;20027;-52
2022/03/03 04:12:59;;;;;;;43.50;25.95;;;;;;;;;;5074625;28;20028;-52
2022/03/03 04:15:25;;;;;;;33.92;19.73;;;;;;;;;;5074675;28;20028;-52
2022/03/03 04:17:51;;;;;;;35.38;21.30;;;;;;;;;;5074656;28;20033;-53
2022/03/03 04:20:18;;;;;;;19.20;14.32;;;;;;;;;;5074624;28;20086;-52
2022/03/03 04:22:44;;;;;;;40.88;24.13;;;;;;;;;;5074406;28;20028;-52
2022/03/03 04:25:10;;;;;;;38.90;23.70;;;;;;;;;;5074567;28;20033;-53
2022/03/03 04:27:37;;;;;;;26.63;17.40;;;;;;;;;;5074442;28;20050;-51
2022/03/03 04:30:08;;;;;;;19.23;12.00;;;;;;;;;;5074343;28;20066;-52
2022/03/03 04:32:35;;;;;;;59.65;28.13;;;;;;;;;;5072142;28;20107;-52
2022/03/03 04:35:01;;;;;;;31.55;18.92;;;;;;;;;;5074537;28;20356;-52
2022/03/03 04:37:27;;;;;;;24.45;14.50;;;;;;;;;;5074108;28;20104;-52
2022/03/03 04:39:54;;;;;;;18.73;12.18;;;;;;;;;;5074239;28;20056;-53
2022/03/03 04:42:20;;;;;;;19.48;12.88;;;;;;;;;;5072257;28;20050;-51
2022/03/03 04:44:46;;;;;;;18.40;12.73;;;;;;;;;;5071929;28;20035;-52
2022/03/03 04:47:12;;;;;;;32.17;19.42;;;;;;;;;;5074254;28;20020;-51
2022/03/03 04:49:38;;;;;;;22.65;13.50;;;;;;;;;;5074012;28;20031;-52
2022/03/03 04:52:04;;;;;;;20.40;12.80;;;;;;;;;;5074054;28;20032;-54
2022/03/03 04:54:30;;;;;;;20.02;13.18;;;;;;;;;;5073899;28;20044;-55
2022/03/03 04:56:57;;;;;;;20.70;13.18;;;;;;;;;;5074237;28;20025;-55
2022/03/03 04:59:23;;;;;;;16.55;12.00;;;;;;;;;;5073894;28;20024;-52
2022/03/03 05:01:51;;;;;;;19.23;13.23;;;;;;;;;;5073633;28;20380;-52
2022/03/03 05:04:17;;;;;;;18.02;11.20;;;;;;;;;;5073927;28;20125;-60
2022/03/03 05:06:44;;;;;;;21.50;12.50;;;;;;;;;;5073820;28;20403;-52
2022/03/03 05:09:10;;;;;;;17.17;12.40;;;;;;;;;;5074105;28;20074;-52
2022/03/03 05:11:36;;;;;;;20.10;13.23;;;;;;;;;;5073804;28;20032;-52
2022/03/03 05:14:02;;;;;;;22.13;13.13;;;;;;;;;;5073451;28;20036;-52
2022/03/03 05:16:28;;;;;;;25.08;13.00;;;;;;;;;;5071506;28;20032;-52
2022/03/03 05:18:54;;;;;;;17.23;12.52;;;;;;;;;;5074066;28;20031;-53
2022/03/03 05:21:20;;;;;;;21.25;13.77;;;;;;;;;;5070292;28;20068;-53
2022/03/03 05:23:46;;;;;;;20.80;13.52;;;;;;;;;;5073655;28;20439;-53
2022/03/03 05:26:13;;;;;;;21.63;13.27;;;;;;;;;;5071635;28;20361;-52
2022/03/03 05:28:39;;;;;;;19.95;12.70;;;;;;;;;;5073544;28;20081;-53
2022/03/03 05:31:06;;;;;;;20.40;13.55;;;;;;;;;;5073696;28;20028;-52
2022/03/03 05:33:33;;;;;;;22.35;14.05;;;;;;;;;;5073566;28;20024;-53
2022/03/03 05:36:02;;;;;;;22.13;14.73;;;;;;;;;;5071429;28;20078;-51
2022/03/03 05:38:29;;;;;;;22.30;14.38;;;;;;;;;;5073331;28;20056;-52
2022/03/03 05:40:55;;;;;;;25.60;14.43;;;;;;;;;;5073637;28;20032;-52
2022/03/03 05:43:22;;;;;;;26.27;14.10;;;;;;;;;;5073503;28;20375;-52
2022/03/03 05:45:48;;;;;;;25.77;14.38;;;;;;;;;;5062192;28;20037;-53
2022/03/03 05:48:18;;;;;;;22.30;13.68;;;;;;;;;;5053350;28;20029;-52
2022/03/03 05:50:45;;;;;;;34.10;15.48;;;;;;;;;;5053176;28;20032;-53
2022/03/03 05:53:11;;;;;;;23.83;13.98;;;;;;;;;;5053534;28;20032;-53
2022/03/03 05:55:44;;;;;;;27.27;16.27;;;;;;;;;;5053284;28;20025;-53
2022/03/03 05:58:19;;;;;;;20.58;14.38;;;;;;;;;;5070272;28;20451;-53
2022/03/03 06:00:46;;;;;;;30.25;14.93;;;;;;;;;;5064388;28;20099;-52
2022/03/03 06:03:20;;;;;;;23.08;14.52;;;;;;;;;;5068802;28;20035;-53
2022/03/03 06:05:53;;;;;;;23.58;14.88;;;;;;;;;;5062630;28;20021;-52
2022/03/03 06:08:26;;;;;;;20.42;14.95;;;;;;;;;;5061782;28;20032;-52
2022/03/03 06:10:53;;;;;;;23.92;16.77;;;;;;;;;;5061745;28;20075;-53
2022/03/03 06:13:28;;;;;;;27.33;15.55;;;;;;;;;;5063327;28;20093;-53
2022/03/03 06:15:54;;;;;;;24.15;15.63;;;;;;;;;;5063378;28;20024;-52
2022/03/03 06:18:25;;;;;;;25.42;14.77;;;;;;;;;;5071576;28;20499;-52
2022/03/03 06:20:52;;;;;;;23.67;14.85;;;;;;;;;;5072345;28;20021;-53
2022/03/03 06:23:18;;;;;;;27.98;14.82;;;;;;;;;;5070404;28;20040;-53
2022/03/03 06:25:46;;;;;;;24.55;15.68;;;7.90;99.90;;;;;;5070804;28;20115;-52
2022/03/03 06:28:11;;;;;;;21.38;14.18;;;6.60;98.60;;;;;;5069199;28;20040;-53
2022/03/03 06:30:37;;;;;;;22.05;15.35;;;7.30;98.00;;;;;;5074263;28;20118;-53
2022/03/03 06:33:04;;;;;;;24.05;14.15;;;;;;;;;;5074333;28;20416;-53
2022/03/03 06:35:36;;;;;;;29.52;13.80;;;7.70;99.90;;;;;;5040648;28;20109;-52
2022/03/03 06:38:06;;;;;;;21.38;13.85;;;8.00;96.60;;;;;;5073885;28;20033;-52
2022/03/03 06:40:33;;;;;;;20.45;13.20;;;8.40;98.50;;;;;;5074296;28;20033;-52
2022/03/03 06:43:00;;;;;;;20.95;13.88;;;8.90;99.90;;;;;;5073882;28;20479;-52
2022/03/03 06:45:28;;;;;;;19.83;13.48;;;9.00;99.90;;;;;;5074026;28;20464;-52
2022/03/03 06:47:55;;;;;;;18.98;12.50;;;9.30;99.90;;;;;;5074068;28;20491;-53
2022/03/03 06:50:21;;;;;;;16.70;11.68;;;9.40;93.10;;;;;;5074032;28;20036;-53
2022/03/03 06:52:48;;;;;;;20.85;11.63;;;;;;;;;;5040239;28;20411;-53
2022/03/03 06:55:21;;;;;;;21.35;13.65;;;9.30;93.00;;;;;;5075964;28;20369;-53
2022/03/03 06:57:54;;;;;;;21.50;13.82;;;9.60;92.60;;;;;;5075985;28;20471;-53
2022/03/03 07:00:21;;;;;;;20.35;13.63;;;;;;;;;;5090971;28;20090;-53
2022/03/03 07:02:48;;;;;;;20.92;15.25;;;10.40;92.00;;;;;;5090998;28;20569;-53
2022/03/03 07:05:16;;;;;;;19.77;12.82;;;10.70;91.70;;;;;;5076201;28;20024;-53
2022/03/03 07:07:45;;;;;;;31.13;13.70;;;10.70;91.50;;;;;;5076005;28;20025;-53
2022/03/03 07:10:12;;;;;;;18.05;12.90;;;10.90;91.40;;;;;;5075822;28;20487;-53
2022/03/03 07:12:38;;;;;;;18.15;12.45;;;11.20;91.00;;;;;;5090543;28;20040;-53
2022/03/03 07:15:05;;;;;;;23.33;14.43;;;11.20;88.90;;;;;;5075773;28;20028;-53
2022/03/03 07:17:47;;;;;;;22.60;13.80;;;;;;;;;;5073601;28;20036;-53
2022/03/03 07:20:39;;;;;;;24.27;13.75;;;;;;;;;;5075574;28;20032;-52
2022/03/03 07:23:08;;;;;;;18.45;12.80;;;;;;;;;;5059503;28;20032;-53
2022/03/03 07:25:51;;;;;;;17.50;12.30;;;12.70;95.50;;;;;;5075691;28;20024;-53
2022/03/03 07:28:19;;;;;;;21.05;13.20;;;;;;;;;;5075430;28;20376;-53
2022/03/03 07:30:48;;;;;;;19.17;11.20;;;;;;;;;;5075620;28;20107;-53
2022/03/03 07:33:19;;;;;;;21.67;15.30;;;;;;;;;;5075382;28;20123;-52
2022/03/03 07:35:50;;;;;;;24.53;14.10;;;12.90;83.80;;;;;;5075279;28;20103;-53
2022/03/03 07:38:23;;;;;;;18.33;13.13;;;12.90;82.70;;;;;;5075124;28;20106;-53
2022/03/03 07:40:49;;;;;;;21.85;12.27;;;13.00;84.50;;;;;;5075345;28;20031;-53
2022/03/03 07:43:16;;;;;;;17.25;11.88;;;;;;;;;;5073059;28;20443;-52
2022/03/03 07:45:43;;;;;;;19.38;11.70;;;13.00;81.00;;;;;;5074960;28;20063;-53
2022/03/03 07:48:11;;;;;;;18.08;12.30;;;13.00;81.60;;;;;;5075365;28;20029;-53
2022/03/03 07:50:39;;;;;;;17.45;12.18;;;13.10;82.40;;;;;;5074987;28;20115;-53
2022/03/03 07:53:10;;;;;;;16.40;11.48;;;;;;;;;;5074772;28;20033;-52
2022/03/03 07:55:46;;;;;;;16.77;12.48;;;13.20;88.40;;;;;;5074920;28;20020;-53
2022/03/03 07:58:20;;;;;;;19.70;12.73;;;13.50;95.20;;;;;;5074856;28;20039;-53
2022/03/03 08:00:50;;;;;;;13.70;9.80;;;;;;;;;;5075028;28;20020;-52
2022/03/03 08:03:19;;;;;;;16.08;11.70;;;12.60;95.10;;;;;;5074907;28;20024;-53
2022/03/03 08:05:48;;;;;;;21.48;13.68;;;12.70;91.10;;;;;;5089591;28;20123;-52
2022/03/03 08:08:19;;;;;;;17.67;12.63;;;13.00;94.80;;;;;;5089515;28;20076;-52
2022/03/03 08:10:46;;;;;;;16.30;11.93;;;13.20;90.70;;;;;;5074724;28;20468;-54
2022/03/03 08:13:16;;;;;;;15.45;11.43;;;12.40;93.40;;;;;;5074439;28;20021;-52
2022/03/03 08:15:46;;;;;;;20.13;13.30;;;12.00;79.20;;;;;;5074550;28;20025;-52
2022/03/03 08:18:14;;;;;;;19.45;13.57;;;11.90;80.50;;;;;;5074596;28;20511;-53
2022/03/03 08:20:40;;;;;;;17.63;10.85;;;12.40;80.90;;;;;;5074540;28;20078;-52
2022/03/03 08:23:07;;;;;;;30.58;19.15;;;12.10;80.60;;;;;;5074385;28;20028;-53
2022/03/03 08:25:34;;;;;;;23.40;16.35;;;12.50;82.20;;;;;;5074402;28;20024;-52
2022/03/03 08:28:02;;;;;;;18.67;13.23;;;12.30;82.50;;;;;;5089159;28;20041;-53
2022/03/03 08:30:29;;;;;;;21.40;13.48;;;13.10;80.90;;;;;;5074302;28;20457;-53
2022/03/03 08:33:18;;;;;;;98.90;45.45;;;12.90;79.80;;;;;;5074337;28;20028;-52
2022/03/03 08:35:50;;;;;;;31.08;18.23;;;12.50;79.40;;;;;;5074318;28;20036;-53
2022/03/03 08:38:33;;;;;;;23.33;13.15;;;12.90;80.60;;;;;;5073857;28;20036;-52
2022/03/03 08:41:00;;;;;;;43.90;21.30;;;11.80;78.00;;;;;;5074353;28;20439;-52
2022/03/03 08:43:28;;;;;;;21.00;13.05;;;13.00;80.20;;;;;;5075738;28;20028;-54
2022/03/03 08:46:02;;;;;;;73.32;29.77;;;12.80;78.90;;;;;;5072644;28;20442;-53
2022/03/03 08:48:32;;;;;;;40.97;16.98;;;12.50;79.10;;;;;;5056393;28;20051;-61
2022/03/03 08:51:03;;;;;;;22.27;13.35;;;12.60;78.70;;;;;;5076299;28;20075;-53
2022/03/03 08:53:29;;;;;;;17.45;11.50;;;12.20;79.90;;;;;;5089607;28;20045;-52
2022/03/03 08:55:58;;;;;;;18.95;13.70;;;12.50;78.80;;;;;;5073829;28;20115;-53
2022/03/03 08:58:25;;;;;;;20.95;13.95;;;12.90;79.60;;;;;;5073790;28;20033;-52
2022/03/03 09:00:51;;;;;;;53.63;25.35;;;;;;;;;;5071630;28;20098;-52
2022/03/03 09:03:22;;;;;;;69.68;31.60;;;;;;;;;;5088469;28;20086;-52
2022/03/03 09:05:51;;;;;;;20.63;11.20;;;;;;;;;;5073753;28;20039;-53
2022/03/03 09:08:18;;;;;;;21.05;13.93;;;;;;;;;;5073680;28;20252;-53
2022/03/03 09:10:44;;;;;;;25.00;13.27;;;12.50;94.30;;;;;;5073453;28;20036;-52
2022/03/03 09:13:10;;;;;;;21.65;12.93;;;12.30;95.80;;;;;;5073520;28;20030;-53
2022/03/03 09:15:36;;;;;;;26.98;17.58;;;12.10;78.50;;;;;;5073549;28;20111;-52
2022/03/03 09:18:02;;;;;;;28.15;15.48;;;12.90;90.60;;;;;;5073534;28;20457;-52
2022/03/03 09:20:28;;;;;;;22.30;15.32;;;13.00;81.20;;;;;;5071568;28;20078;-53
2022/03/03 09:22:55;;;;;;;21.60;15.82;;;13.10;79.80;;;;;;5073673;28;20067;-52
2022/03/03 09:25:21;;;;;;;21.85;14.88;;;;;;;;;;5073405;28;20021;-52
2022/03/03 09:27:47;;;;;;;29.05;15.60;;;;;;;;;;5073420;28;20122;-53
2022/03/03 09:30:14;;;;;;;17.63;12.48;;;;;;;;;;5073361;28;20491;-52
2022/03/03 09:32:40;;;;;;;21.25;12.90;;;;;;;;;;5073571;28;20079;-52
2022/03/03 09:35:06;;;;;;;19.83;13.18;;;;;;;;;;5073403;28;20044;-52
2022/03/03 09:37:32;;;;;;;17.40;11.57;;;;;;;;;;5073374;28;20025;-52
2022/03/03 09:39:58;;;;;;;18.98;10.07;;;;;;;;;;5073288;28;20037;-52
2022/03/03 09:42:31;;;;;;;13.68;10.45;;;;;;;;;;5073421;28;20059;-52
2022/03/03 09:44:58;;;;;;;9.25;7.07;;;;;;;;;;5073476;28;20090;-52
2022/03/03 09:47:24;;;;;;;14.77;11.05;;;11.70;87.60;;;;;;5073703;28;20028;-52
2022/03/03 09:49:50;;;;;;;14.30;11.23;;;12.30;75.90;;;;;;5073342;28;20452;-52
2022/03/03 09:52:17;;;;;;;22.30;16.58;;;12.70;76.20;;;;;;5071178;28;20044;-52
2022/03/03 09:54:49;;;;;;;17.10;12.57;;;13.20;76.90;;;;;;5073309;28;20112;-52
2022/03/03 09:57:15;;;;;;;15.63;11.35;;;;;;;;;;5085135;28;20082;-53
2022/03/03 09:59:42;;;;;;;17.73;12.80;;;14.10;92.90;;;;;;5073395;28;20107;-53
2022/03/03 10:02:08;;;;;;;15.23;10.68;;;14.40;91.80;;;;;;5075163;28;20115;-52
2022/03/03 10:04:35;;;;;;;12.68;9.18;;;;;;;;;;5077111;28;20056;-53
2022/03/03 10:07:05;;;;;;;18.00;11.57;;;;;;;;;;5092098;28;20545;-53
2022/03/03 10:09:31;;;;;;;16.23;11.00;;;15.20;98.30;;;;;;5077109;28;20040;-52
2022/03/03 10:12:05;;;;;;;14.20;10.75;;;14.50;73.90;;;;;;5077057;28;20033;-53
2022/03/03 10:14:35;;;;;;;18.77;11.45;;;13.90;75.20;;;;;;5076926;28;20072;-53
2022/03/03 10:17:01;;;;;;;16.33;11.55;;;14.00;74.00;;;;;;5076916;28;20062;-52
2022/03/03 10:19:27;;;;;;;15.32;11.52;;;14.50;74.10;;;;;;5076744;28;20116;-52
2022/03/03 10:21:54;;;;;;;21.98;14.40;;;;;;;;;;5076796;28;20035;-52
2022/03/03 10:24:21;;;;;;;14.48;10.80;;;;;;;;;;5076597;28;20104;-52
2022/03/03 10:26:55;;;;;;;17.15;12.93;;;;;;;;;;5076728;28;20131;-52
2022/03/03 10:29:22;;;;;;;18.33;11.88;;;;;;;;;;5076609;28;20457;-53
2022/03/03 10:31:50;;;;;;;22.05;13.05;;;13.20;94.20;;;;;;5076489;28;20365;-52
2022/03/03 10:34:25;;;;;;;19.55;12.70;;;14.80;74.70;;;;;;5091530;28;20573;-52
2022/03/03 10:37:01;;;;;;;13.00;9.88;;;14.40;73.40;;;;;;5076675;28;20039;-53
2022/03/03 10:39:47;;;;;;;19.40;13.73;;;13.70;74.20;;;;;;5076027;28;20423;-52
2022/03/03 10:42:17;;;;;;;17.30;13.00;;;;;;;;;;5076550;28;20036;-52
2022/03/03 10:44:43;;;;;;;19.13;13.05;;;15.30;81.20;;;;;;5074073;28;20050;-53
2022/03/03 10:47:11;;;;;;;21.20;13.23;;;15.00;82.90;;;;;;5074082;28;20044;-52
2022/03/03 10:49:45;;;;;;;14.35;9.40;;;15.00;94.80;;;;;;5074052;28;20049;-52
2022/03/03 10:52:15;;;;;;;17.60;13.38;;;14.60;94.10;;;;;;5074146;28;20480;-53
2022/03/03 10:54:58;;;;;;;17.50;13.40;;;14.50;95.10;;;;;;5073630;28;20049;-52
2022/03/03 10:57:45;;;;;;;21.95;13.32;;;14.50;73.80;;;;;;5040419;28;20055;-53
2022/03/03 11:00:21;;;;;;;16.40;12.48;;;14.70;72.40;;;;;;5073854;28;20053;-53
2022/03/03 11:02:52;;;;;;;22.13;13.70;;;14.20;73.70;;;;;;5073720;28;20380;-53
2022/03/03 11:05:19;;;;;;;19.23;13.02;;;14.30;74.70;;;;;;5073766;28;20052;-53
2022/03/03 11:07:47;;;;;;;16.50;11.90;;;14.20;73.20;;;;;;5070974;28;20033;-53
2022/03/03 11:10:21;;;;;;;19.50;13.43;;;13.80;74.00;;;;;;5040017;28;20041;-52
2022/03/03 11:12:48;;;;;;;18.25;12.63;;;13.60;74.30;;;;;;5073253;28;20170;-53
2022/03/03 11:15:16;;;;;;;16.25;12.30;;;13.70;73.00;;;;;;5074412;28;20044;-53
2022/03/03 11:17:43;;;;;;;25.50;14.75;;;13.60;74.00;;;;;;5090526;28;20048;-53
2022/03/03 11:20:11;;;;;;;15.68;11.95;;;13.60;73.20;;;;;;5090749;28;20036;-53
2022/03/03 11:22:39;;;;;;;17.73;13.70;;;14.00;73.90;;;;;;5075732;28;20052;-54
2022/03/03 11:25:08;;;;;;;19.52;13.52;;;13.70;73.50;;;;;;5075496;28;20465;-53
2022/03/03 11:27:39;;;;;;;33.55;17.42;;;13.80;73.20;;;;;;5073626;28;20482;-53
2022/03/03 11:30:33;;;;;;;16.40;11.75;;;13.70;74.20;;;;;;5075023;28;20388;-53
2022/03/03 11:33:28;;;;;;;22.80;14.80;;;13.50;73.90;;;;;;5075387;28;20036;-54
2022/03/03 11:36:03;;;;;;;16.20;12.45;;;13.80;74.00;;;;;;5064820;28;20037;-54
2022/03/03 11:38:53;;;;;;;19.55;14.88;;;14.00;72.10;;;;;;5070178;28;20111;-53
2022/03/03 11:41:23;;;;;;;18.90;12.88;;;14.00;73.70;;;;;;4989990;28;20137;-53
2022/03/03 11:44:00;;;;;;;16.60;12.25;;;14.70;72.90;;;;;;4981741;28;20588;-53
2022/03/03 11:46:44;;;;;;;17.13;11.27;;;13.90;72.20;;;;;;4973361;28;20125;-53
2022/03/03 11:49:12;;;;;;;18.10;12.48;;;13.90;73.60;;;;;;4989880;28;20421;-54
2022/03/03 11:51:38;;;;;;;17.25;12.75;;;13.30;72.00;;;;;;4987483;28;20417;-53
2022/03/03 11:54:11;;;;;;;19.20;12.80;;;13.40;74.50;;;;;;4990867;28;20034;-53
2022/03/03 11:57:09;;;;;;;19.60;13.98;;;13.10;72.90;;;;;;4984624;28;20097;-53
2022/03/03 11:59:35;;;;;;;23.90;11.93;;;13.20;73.90;;;;;;4976660;28;20050;-52
2022/03/03 12:02:01;;;;;;;19.42;13.18;;;13.00;72.80;;;;;;4973931;28;20043;-52
2022/03/03 12:04:27;;;;;;;29.75;17.17;;;13.70;75.10;;;;;;4974026;28;20049;-53
2022/03/03 12:06:56;;;;;;;23.20;14.50;;;14.00;74.30;;;;;;4983725;28;20125;-53
2022/03/03 12:09:26;;;;;;;31.25;16.48;;;14.00;73.10;;;;;;4993203;28;20089;-53
2022/03/03 12:12:12;;;;;;;34.22;19.98;;;13.40;72.50;;;;;;4993435;28;20081;-52
2022/03/03 12:14:54;;;;;;;15.15;9.57;;;13.20;72.10;;;;;;4993284;28;20042;-52
2022/03/03 12:17:48;;;;;;;55.55;26.75;;;13.10;74.90;;;;;;4998647;28;20043;-52
2022/03/03 12:20:35;;;;;;;24.60;15.20;;;13.40;73.50;;;;;;5065911;28;20033;-52
2022/03/03 12:23:13;;;;;;;13.45;10.02;;;13.80;72.20;;;;;;5071509;28;20036;-54
2022/03/03 12:25:51;;;;;;;14.40;9.65;;;13.10;70.70;;;;;;5044641;28;20036;-53
2022/03/03 12:28:23;;;;;;;16.65;11.05;;;12.90;71.70;;;;;;5068549;28;20029;-52
2022/03/03 12:30:51;;;;;;;18.33;11.38;;;13.00;71.10;;;;;;5063524;28;20120;-52
2022/03/03 12:33:27;;;;;;;25.42;14.15;;;13.40;76.00;;;;;;5064842;28;20051;-52
2022/03/03 12:36:05;;;;;;;11.63;8.40;;;13.70;71.40;;;;;;5064597;28;20036;-53
2022/03/03 12:38:33;;;;;;;15.43;10.35;;;13.00;71.00;;;;;;5074012;28;20055;-54
2022/03/03 12:40:59;;;;;;;17.27;12.13;;;13.20;71.10;;;;;;5070999;28;20021;-52
2022/03/03 12:43:25;;;;;;;15.05;10.05;;;13.00;73.20;;;;;;5069071;28;20135;-52
2022/03/03 12:45:51;;;;;;;19.25;14.00;;;12.80;72.90;;;;;;5063958;28;20053;-53
2022/03/03 12:48:28;;;;;;;13.60;9.93;;;13.10;72.70;;;;;;5062227;28;20051;-53
2022/03/03 12:51:07;;;;;;;12.90;7.97;;;13.60;75.00;;;;;;5062258;28;20469;-53
2022/03/03 12:53:43;;;;;;;12.48;9.10;;;13.20;72.90;;;;;;5064061;28;20031;-53
2022/03/03 12:56:22;;;;;;;14.82;10.07;;;13.10;72.60;;;;;;5063606;28;20116;-52
2022/03/03 12:58:48;;;;;;;16.70;10.60;;;12.70;71.40;;;;;;5061336;28;20381;-52
2022/03/03 13:01:22;;;;;;;12.98;8.18;;;13.10;73.40;;;;;;5060354;28;20392;-52
2022/03/03 13:03:49;;;;;;;15.15;10.88;;;12.80;72.60;;;;;;5061121;28;20052;-53
2022/03/03 13:06:21;;;;;;;12.70;10.45;;;13.10;73.30;;;;;;5059610;28;20144;-52
2022/03/03 13:08:57;;;;;;;14.18;10.25;;;13.30;75.00;;;;;;5060547;28;20039;-53
2022/03/03 13:11:23;;;;;;;14.80;10.98;;;13.30;72.60;;;;;;5028612;28;20454;-53
2022/03/03 13:13:51;;;;;;;14.77;9.98;;;13.70;73.30;;;;;;5014834;28;20135;-53
2022/03/03 13:16:26;;;;;;;16.75;9.15;;;13.90;71.80;;;;;;5011265;28;20501;-53